sensor_id;sensor_type;location;lat;lon;timestamp;pressure;altitude;pressure_sealevel;temperature;humidity
49055;BME280;35405;52.344;14.530;2022-10-17T05:57:29;101381.56;;;12.46;100.00
49055;BME280;35405;52.344;14.530;2022-10-17T05:59:54;101381.28;;;12.48;100.00
49055;BME280;35405;52.344;14.530;2022-10-17T06:02:19;101388.38;;;12.49;100.00
49055;BME280;35405;52.344;14.530;2022-10-17T06:04:45;101383.44;;;12.51;100.00
49055;BME280;35405;52.344;14.530;2022-10-17T06:07:12;101382.91;;;12.49;100.00
49055;BME280;35405;52.344;14.530;2022-10-17T06:09:38;101385.88;;;12.52;100.00
49055;BME280;35405;52.344;14.530;2022-10-17T06:12:04;101394.88;;;12.53;100.00
49055;BME280;35405;52.344;14.530;2022-10-17T06:14:29;101391.34;;;12.52;100.00
49055;BME280;35405;52.344;14.530;2022-10-17T06:16:54;101392.38;;;12.56;100.00
49055;BME280;35405;52.344;14.530;2022-10-17T06:19:19;101395.91;;;12.57;100.00
49055;BME280;35405;52.344;14.530;2022-10-17T06:21:45;101398.94;;;12.55;100.00
49055;BME280;35405;52.344;14.530;2022-10-17T06:24:30;101401.38;;;12.57;100.00
49055;BME280;35405;52.344;14.530;2022-10-17T06:26:56;101407.91;;;12.61;100.00
49055;BME280;35405;52.344;14.530;2022-10-17T06:29:21;101407.91;;;12.61;100.00
49055;BME280;35405;52.344;14.530;2022-10-17T06:31:46;101407.91;;;12.61;100.00
49055;BME280;35405;52.344;14.530;2022-10-17T06:34:12;101407.59;;;12.63;100.00
49055;BME280;35405;52.344;14.530;2022-10-17T06:36:37;101419.88;;;12.65;100.00
49055;BME280;35405;52.344;14.530;2022-10-17T06:39:02;101420.09;;;12.69;100.00
49055;BME280;35405;52.344;14.530;2022-10-17T06:41:28;101424.47;;;12.70;100.00
49055;BME280;35405;52.344;14.530;2022-10-17T06:43:53;101424.72;;;12.73;100.00
49055;BME280;35405;52.344;14.530;2022-10-17T06:46:20;101421.19;;;12.73;100.00
49055;BME280;35405;52.344;14.530;2022-10-17T06:48:45;101427.44;;;12.73;100.00
49055;BME280;35405;52.344;14.530;2022-10-17T06:51:10;101423.78;;;12.83;100.00
49055;BME280;35405;52.344;14.530;2022-10-17T06:53:36;101430.81;;;12.89;100.00
49055;BME280;35405;52.344;14.530;2022-10-17T06:56:02;101438.97;;;12.94;100.00
49055;BME280;35405;52.344;14.530;2022-10-17T06:58:29;101440.91;;;12.94;100.00
49055;BME280;35405;52.344;14.530;2022-10-17T07:00:58;101441.72;;;12.94;100.00
49055;BME280;35405;52.344;14.530;2022-10-17T07:03:23;101449.00;;;12.99;100.00
49055;BME280;35405;52.344;14.530;2022-10-17T07:05:52;101446.25;;;13.04;100.00
49055;BME280;35405;52.344;14.530;2022-10-17T07:08:18;101453.56;;;13.09;100.00
49055;BME280;35405;52.344;14.530;2022-10-17T07:10:43;101458.69;;;13.15;100.00
49055;BME280;35405;52.344;14.530;2022-10-17T07:13:08;101451.75;;;13.23;100.00
49055;BME280;35405;52.344;14.530;2022-10-17T07:15:33;101455.81;;;13.31;100.00
49055;BME280;35405;52.344;14.530;2022-10-17T07:18:00;101456.56;;;13.36;100.00
49055;BME280;35405;52.344;14.530;2022-10-17T07:20:25;101455.09;;;13.44;100.00
49055;BME280;35405;52.344;14.530;2022-10-17T07:22:50;101450.56;;;13.58;100.00
49055;BME280;35405;52.344;14.530;2022-10-17T07:25:16;101448.66;;;13.78;100.00
49055;BME280;35405;52.344;14.530;2022-10-17T07:27:41;101454.22;;;13.91;100.00
49055;BME280;35405;52.344;14.530;2022-10-17T07:30:06;101446.69;;;14.02;100.00
49055;BME280;35405;52.344;14.530;2022-10-17T07:32:32;101439.66;;;14.15;100.00
49055;BME280;35405;52.344;14.530;2022-10-17T07:34:57;101444.00;;;14.16;100.00
49055;BME280;35405;52.344;14.530;2022-10-17T07:37:22;101444.00;;;14.16;100.00
49055;BME280;35405;52.344;14.530;2022-10-17T07:39:47;101440.88;;;14.23;100.00
49055;BME280;35405;52.344;14.530;2022-10-17T07:42:13;101453.09;;;14.30;100.00
49055;BME280;35405;52.344;14.530;2022-10-17T07:44:38;101450.88;;;14.32;100.00
49055;BME280;35405;52.344;14.530;2022-10-17T07:47:03;101464.31;;;14.29;100.00
49055;BME280;35405;52.344;14.530;2022-10-17T07:49:29;101461.00;;;14.32;100.00
49055;BME280;35405;52.344;14.530;2022-10-17T07:51:55;101469.66;;;14.39;100.00
49055;BME280;35405;52.344;14.530;2022-10-17T07:54:20;101469.13;;;14.56;100.00
49055;BME280;35405;52.344;14.530;2022-10-17T07:56:45;101472.66;;;14.75;100.00
49055;BME280;35405;52.344;14.530;2022-10-17T07:59:14;101479.94;;;14.80;100.00
49055;BME280;35405;52.344;14.530;2022-10-17T08:01:39;101473.25;;;14.86;100.00
49055;BME280;35405;52.344;14.530;2022-10-17T08:04:05;101489.59;;;14.77;100.00
49055;BME280;35405;52.344;14.530;2022-10-17T08:06:30;101491.69;;;14.67;100.00
49055;BME280;35405;52.344;14.530;2022-10-17T08:08:55;101504.25;;;14.68;100.00
49055;BME280;35405;52.344;14.530;2022-10-17T08:11:21;101497.69;;;14.69;100.00
49055;BME280;35405;52.344;14.530;2022-10-17T08:13:49;101501.25;;;14.83;100.00
49055;BME280;35405;52.344;14.530;2022-10-17T08:16:14;101506.66;;;14.88;100.00
49055;BME280;35405;52.344;14.530;2022-10-17T08:18:40;101496.75;;;14.92;100.00
49055;BME280;35405;52.344;14.530;2022-10-17T08:21:06;101503.22;;;14.96;100.00
49055;BME280;35405;52.344;14.530;2022-10-17T08:23:32;101502.84;;;15.03;100.00
49055;BME280;35405;52.344;14.530;2022-10-17T08:25:58;101511.69;;;15.14;100.00
49055;BME280;35405;52.344;14.530;2022-10-17T08:28:24;101512.50;;;15.28;100.00
49055;BME280;35405;52.344;14.530;2022-10-17T08:30:49;101509.16;;;15.31;100.00
49055;BME280;35405;52.344;14.530;2022-10-17T08:33:15;101516.69;;;15.39;100.00
49055;BME280;35405;52.344;14.530;2022-10-17T08:35:40;101516.59;;;15.44;100.00
49055;BME280;35405;52.344;14.530;2022-10-17T08:38:05;101521.88;;;15.54;100.00
49055;BME280;35405;52.344;14.530;2022-10-17T08:40:31;101516.44;;;15.68;100.00
49055;BME280;35405;52.344;14.530;2022-10-17T08:45:40;101514.50;;;15.83;100.00
49055;BME280;35405;52.344;14.530;2022-10-17T08:48:15;101524.25;;;15.89;100.00
49055;BME280;35405;52.344;14.530;2022-10-17T08:50:51;101520.47;;;15.98;100.00
49055;BME280;35405;52.344;14.530;2022-10-17T08:56:16;101532.09;;;16.18;100.00
49055;BME280;35405;52.344;14.530;2022-10-17T08:58:41;101530.03;;;16.37;100.00
49055;BME280;35405;52.344;14.530;2022-10-17T09:06:23;101532.19;;;16.85;100.00
49055;BME280;35405;52.344;14.530;2022-10-17T09:09:49;101532.72;;;16.96;100.00
49055;BME280;35405;52.344;14.530;2022-10-17T09:11:55;101529.47;;;17.17;100.00
49055;BME280;35405;52.344;14.530;2022-10-17T09:19:42;101523.84;;;17.62;100.00
49055;BME280;35405;52.344;14.530;2022-10-17T09:22:12;101525.81;;;17.70;100.00
49055;BME280;35405;52.344;14.530;2022-10-17T09:25:13;101529.88;;;17.72;100.00
49055;BME280;35405;52.344;14.530;2022-10-17T09:27:33;101520.19;;;17.83;100.00
49055;BME280;35405;52.344;14.530;2022-10-17T09:30:14;101527.50;;;17.88;100.00
49055;BME280;35405;52.344;14.530;2022-10-17T09:32:41;101529.63;;;18.00;100.00
49055;BME280;35405;52.344;14.530;2022-10-17T09:35:16;101530.63;;;18.13;100.00
49055;BME280;35405;52.344;14.530;2022-10-17T09:37:41;101519.28;;;18.23;100.00
49055;BME280;35405;52.344;14.530;2022-10-17T09:40:11;101525.00;;;18.35;100.00
49055;BME280;35405;52.344;14.530;2022-10-17T09:42:37;101519.94;;;18.46;100.00
49055;BME280;35405;52.344;14.530;2022-10-17T09:47:38;101516.38;;;18.71;100.00
49055;BME280;35405;52.344;14.530;2022-10-17T09:50:27;101530.50;;;18.79;100.00
49055;BME280;35405;52.344;14.530;2022-10-17T09:52:50;101525.28;;;18.77;100.00
49055;BME280;35405;52.344;14.530;2022-10-17T09:57:59;101523.66;;;18.93;100.00
49055;BME280;35405;52.344;14.530;2022-10-17T10:02:50;101533.81;;;19.10;100.00
49055;BME280;35405;52.344;14.530;2022-10-17T10:05:16;101532.69;;;19.20;100.00
49055;BME280;35405;52.344;14.530;2022-10-17T10:07:42;101535.69;;;19.36;100.00
49055;BME280;35405;52.344;14.530;2022-10-17T10:10:23;101544.72;;;19.54;100.00
49055;BME280;35405;52.344;14.530;2022-10-17T10:15:36;101549.97;;;20.06;100.00
49055;BME280;35405;52.344;14.530;2022-10-17T10:18:01;101547.59;;;20.25;100.00
49055;BME280;35405;52.344;14.530;2022-10-17T10:20:34;101543.94;;;20.33;100.00
49055;BME280;35405;52.344;14.530;2022-10-17T10:23:16;101541.78;;;20.39;100.00
49055;BME280;35405;52.344;14.530;2022-10-17T10:25:55;101547.22;;;20.48;100.00
49055;BME280;35405;52.344;14.530;2022-10-17T10:28:22;101544.44;;;20.57;100.00
49055;BME280;35405;52.344;14.530;2022-10-17T10:30:50;101545.84;;;20.63;100.00
49055;BME280;35405;52.344;14.530;2022-10-17T10:33:18;101545.91;;;20.54;100.00
49055;BME280;35405;52.344;14.530;2022-10-17T10:35:44;101546.44;;;20.47;100.00
49055;BME280;35405;52.344;14.530;2022-10-17T10:38:15;101536.66;;;20.50;100.00
49055;BME280;35405;52.344;14.530;2022-10-17T10:40:46;101543.50;;;20.52;100.00
49055;BME280;35405;52.344;14.530;2022-10-17T10:45:47;101532.66;;;20.81;100.00
49055;BME280;35405;52.344;14.530;2022-10-17T10:48:20;101538.78;;;20.86;100.00
49055;BME280;35405;52.344;14.530;2022-10-17T10:50:46;101539.50;;;20.95;100.00
49055;BME280;35405;52.344;14.530;2022-10-17T10:55:54;101544.63;;;21.18;100.00
49055;BME280;35405;52.344;14.530;2022-10-17T11:01:06;101541.59;;;21.44;100.00
49055;BME280;35405;52.344;14.530;2022-10-17T11:03:38;101543.09;;;21.66;100.00
49055;BME280;35405;52.344;14.530;2022-10-17T11:06:11;101542.97;;;21.87;100.00
49055;BME280;35405;52.344;14.530;2022-10-17T11:08:39;101536.75;;;22.02;100.00
49055;BME280;35405;52.344;14.530;2022-10-17T11:11:19;101528.19;;;22.20;100.00
49055;BME280;35405;52.344;14.530;2022-10-17T11:16:30;101537.59;;;22.43;100.00
49055;BME280;35405;52.344;14.530;2022-10-17T11:19:07;101535.41;;;22.36;100.00
49055;BME280;35405;52.344;14.530;2022-10-17T11:24:27;101530.16;;;22.19;100.00
49055;BME280;35405;52.344;14.530;2022-10-17T11:26:53;101528.66;;;22.09;100.00
49055;BME280;35405;52.344;14.530;2022-10-17T11:29:19;101521.63;;;22.00;100.00
49055;BME280;35405;52.344;14.530;2022-10-17T11:31:49;101523.03;;;21.94;100.00
49055;BME280;35405;52.344;14.530;2022-10-17T11:34:24;101520.69;;;21.96;100.00
49055;BME280;35405;52.344;14.530;2022-10-17T11:36:55;101519.31;;;21.89;100.00
49055;BME280;35405;52.344;14.530;2022-10-17T11:41:49;101516.53;;;21.89;100.00
49055;BME280;35405;52.344;14.530;2022-10-17T11:49:46;101506.97;;;21.87;100.00
49055;BME280;35405;52.344;14.530;2022-10-17T11:52:26;101510.41;;;21.96;100.00
49055;BME280;35405;52.344;14.530;2022-10-17T11:54:53;101509.38;;;22.01;100.00
49055;BME280;35405;52.344;14.530;2022-10-17T12:02:41;101502.91;;;22.09;100.00
49055;BME280;35405;52.344;14.530;2022-10-17T12:08:16;101502.66;;;22.14;100.00
49055;BME280;35405;52.344;14.530;2022-10-17T12:18:50;101500.03;;;22.46;100.00
49055;BME280;35405;52.344;14.530;2022-10-17T12:21:16;101496.19;;;22.50;100.00
49055;BME280;35405;52.344;14.530;2022-10-17T12:23:49;101492.38;;;22.55;100.00
49055;BME280;35405;52.344;14.530;2022-10-17T12:26:19;101498.66;;;22.68;100.00
49055;BME280;35405;52.344;14.530;2022-10-17T12:28:53;101492.88;;;22.73;100.00
49055;BME280;35405;52.344;14.530;2022-10-17T12:31:24;101483.75;;;22.72;100.00
49055;BME280;35405;52.344;14.530;2022-10-17T12:38:45;101470.94;;;22.68;100.00
49055;BME280;35405;52.344;14.530;2022-10-17T12:41:13;101468.97;;;22.68;100.00
49055;BME280;35405;52.344;14.530;2022-10-17T12:43:49;101472.56;;;22.69;100.00
49055;BME280;35405;52.344;14.530;2022-10-17T12:49:00;101477.19;;;22.65;100.00
49055;BME280;35405;52.344;14.530;2022-10-17T12:52:03;101475.50;;;22.60;100.00
49055;BME280;35405;52.344;14.530;2022-10-17T12:54:19;101478.28;;;22.60;100.00
49055;BME280;35405;52.344;14.530;2022-10-17T12:56:51;101471.56;;;22.61;100.00
49055;BME280;35405;52.344;14.530;2022-10-17T12:59:19;101467.88;;;22.57;100.00
49055;BME280;35405;52.344;14.530;2022-10-17T13:01:52;101468.22;;;22.55;100.00
49055;BME280;35405;52.344;14.530;2022-10-17T13:04:19;101469.84;;;22.56;100.00
49055;BME280;35405;52.344;14.530;2022-10-17T13:06:46;101466.25;;;22.56;100.00
49055;BME280;35405;52.344;14.530;2022-10-17T13:11:50;101457.19;;;22.43;100.00
49055;BME280;35405;52.344;14.530;2022-10-17T13:14:17;101460.41;;;22.29;100.00
49055;BME280;35405;52.344;14.530;2022-10-17T13:17:00;101462.47;;;22.20;100.00
49055;BME280;35405;52.344;14.530;2022-10-17T13:19:29;101466.63;;;22.14;100.00
49055;BME280;35405;52.344;14.530;2022-10-17T13:21:58;101469.66;;;22.09;100.00
49055;BME280;35405;52.344;14.530;2022-10-17T13:24:36;101460.88;;;22.19;100.00
49055;BME280;35405;52.344;14.530;2022-10-17T13:27:18;101462.84;;;22.19;100.00
49055;BME280;35405;52.344;14.530;2022-10-17T13:29:45;101468.25;;;22.15;100.00
49055;BME280;35405;52.344;14.530;2022-10-17T13:32:10;101464.03;;;22.05;100.00
49055;BME280;35405;52.344;14.530;2022-10-17T13:34:36;101464.59;;;21.99;100.00
49055;BME280;35405;52.344;14.530;2022-10-17T13:37:05;101470.41;;;21.94;100.00
49055;BME280;35405;52.344;14.530;2022-10-17T13:39:37;101471.44;;;21.89;100.00
49055;BME280;35405;52.344;14.530;2022-10-17T13:42:03;101469.03;;;21.75;100.00
49055;BME280;35405;52.344;14.530;2022-10-17T13:44:32;101461.41;;;21.72;100.00
49055;BME280;35405;52.344;14.530;2022-10-17T13:47:03;101470.09;;;21.71;100.00
49055;BME280;35405;52.344;14.530;2022-10-17T13:51:57;101471.13;;;21.78;100.00
49055;BME280;35405;52.344;14.530;2022-10-17T13:54:38;101462.44;;;21.80;100.00
49055;BME280;35405;52.344;14.530;2022-10-17T13:57:26;101465.31;;;21.83;100.00
49055;BME280;35405;52.344;14.530;2022-10-17T14:02:43;101463.25;;;21.80;100.00
49055;BME280;35405;52.344;14.530;2022-10-17T14:07:36;101463.59;;;21.91;100.00
49055;BME280;35405;52.344;14.530;2022-10-17T14:10:03;101455.28;;;21.91;100.00
49055;BME280;35405;52.344;14.530;2022-10-17T14:12:41;101455.28;;;21.91;100.00
49055;BME280;35405;52.344;14.530;2022-10-17T14:15:08;101456.75;;;22.01;100.00
49055;BME280;35405;52.344;14.530;2022-10-17T14:17:37;101446.84;;;22.00;100.00
49055;BME280;35405;52.344;14.530;2022-10-17T14:20:03;101456.97;;;21.96;100.00
49055;BME280;35405;52.344;14.530;2022-10-17T14:22:32;101450.44;;;21.88;100.00
49055;BME280;35405;52.344;14.530;2022-10-17T14:24:58;101458.88;;;21.79;100.00
49055;BME280;35405;52.344;14.530;2022-10-17T14:27:36;101451.59;;;21.75;100.00
49055;BME280;35405;52.344;14.530;2022-10-17T14:30:27;101453.09;;;21.72;100.00
49055;BME280;35405;52.344;14.530;2022-10-17T14:32:52;101451.72;;;21.66;100.00
49055;BME280;35405;52.344;14.530;2022-10-17T14:35:19;101451.59;;;21.75;100.00
49055;BME280;35405;52.344;14.530;2022-10-17T14:37:45;101457.28;;;21.78;100.00
49055;BME280;35405;52.344;14.530;2022-10-17T14:40:18;101459.78;;;21.83;100.00
49055;BME280;35405;52.344;14.530;2022-10-17T14:42:44;101457.00;;;21.83;100.00
49055;BME280;35405;52.344;14.530;2022-10-17T14:45:16;101462.44;;;21.80;100.00
49055;BME280;35405;52.344;14.530;2022-10-17T14:47:47;101454.03;;;21.76;100.00
49055;BME280;35405;52.344;14.530;2022-10-17T14:50:23;101453.38;;;21.67;100.00
49055;BME280;35405;52.344;14.530;2022-10-17T14:53:16;101456.59;;;21.57;100.00
49055;BME280;35405;52.344;14.530;2022-10-17T14:55:54;101458.22;;;21.45;100.00
49055;BME280;35405;52.344;14.530;2022-10-17T14:58:24;101467.31;;;21.34;100.00
49055;BME280;35405;52.344;14.530;2022-10-17T15:00:49;101473.84;;;21.17;100.00
49055;BME280;35405;52.344;14.530;2022-10-17T15:03:14;101475.25;;;21.11;100.00
49055;BME280;35405;52.344;14.530;2022-10-17T15:05:43;101465.53;;;21.05;100.00
49055;BME280;35405;52.344;14.530;2022-10-17T15:08:18;101462.69;;;21.13;100.00
49055;BME280;35405;52.344;14.530;2022-10-17T15:10:45;101464.16;;;21.11;100.00
49055;BME280;35405;52.344;14.530;2022-10-17T15:13:13;101462.09;;;21.08;100.00
49055;BME280;35405;52.344;14.530;2022-10-17T15:15:39;101452.75;;;21.00;100.00
49055;BME280;35405;52.344;14.530;2022-10-17T15:18:05;101457.91;;;20.89;100.00
49055;BME280;35405;52.344;14.530;2022-10-17T15:20:31;101453.66;;;20.80;100.00
49055;BME280;35405;52.344;14.530;2022-10-17T15:22:57;101448.00;;;20.76;100.00
49055;BME280;35405;52.344;14.530;2022-10-17T15:25:23;101456.38;;;20.67;100.00
49055;BME280;35405;52.344;14.530;2022-10-17T15:27:49;101456.00;;;20.57;100.00
49055;BME280;35405;52.344;14.530;2022-10-17T15:30:22;101457.19;;;20.47;100.00
49055;BME280;35405;52.344;14.530;2022-10-17T15:32:48;101453.72;;;20.38;100.00
49055;BME280;35405;52.344;14.530;2022-10-17T15:35:14;101453.78;;;20.29;100.00
49055;BME280;35405;52.344;14.530;2022-10-17T15:37:40;101455.75;;;20.07;100.00
49055;BME280;35405;52.344;14.530;2022-10-17T15:40:08;101446.25;;;19.96;100.00
49055;BME280;35405;52.344;14.530;2022-10-17T15:42:34;101448.53;;;19.94;100.00
49055;BME280;35405;52.344;14.530;2022-10-17T15:44:59;101451.72;;;20.05;100.00
49055;BME280;35405;52.344;14.530;2022-10-17T15:47:25;101451.84;;;20.08;100.00
49055;BME280;35405;52.344;14.530;2022-10-17T15:49:52;101462.94;;;20.00;100.00
49055;BME280;35405;52.344;14.530;2022-10-17T15:52:21;101470.50;;;19.91;100.00
49055;BME280;35405;52.344;14.530;2022-10-17T15:54:46;101476.19;;;19.85;100.00
49055;BME280;35405;52.344;14.530;2022-10-17T16:00:05;101478.16;;;19.55;100.00
49055;BME280;35405;52.344;14.530;2022-10-17T16:02:30;101470.63;;;19.35;100.00
49055;BME280;35405;52.344;14.530;2022-10-17T16:04:57;101471.19;;;19.19;100.00
49055;BME280;35405;52.344;14.530;2022-10-17T16:07:23;101475.91;;;19.10;100.00
49055;BME280;35405;52.344;14.530;2022-10-17T16:09:48;101481.16;;;18.94;100.00
49055;BME280;35405;52.344;14.530;2022-10-17T16:12:17;101476.81;;;18.85;100.00
49055;BME280;35405;52.344;14.530;2022-10-17T16:14:43;101477.78;;;18.80;100.00
49055;BME280;35405;52.344;14.530;2022-10-17T16:17:12;101482.00;;;18.69;100.00
49055;BME280;35405;52.344;14.530;2022-10-17T16:19:38;101479.75;;;18.62;100.00
49055;BME280;35405;52.344;14.530;2022-10-17T16:22:09;101480.88;;;18.61;100.00
49055;BME280;35405;52.344;14.530;2022-10-17T16:24:40;101479.56;;;18.59;100.00
49055;BME280;35405;52.344;14.530;2022-10-17T16:27:06;101487.03;;;18.58;100.00
49055;BME280;35405;52.344;14.530;2022-10-17T16:29:32;101487.53;;;18.51;100.00
49055;BME280;35405;52.344;14.530;2022-10-17T16:31:57;101488.03;;;18.45;100.00
49055;BME280;35405;52.344;14.530;2022-10-17T16:34:22;101492.91;;;18.31;100.00
49055;BME280;35405;52.344;14.530;2022-10-17T16:36:48;101488.19;;;18.22;100.00
49055;BME280;35405;52.344;14.530;2022-10-17T16:39:13;101484.31;;;18.23;100.00
49055;BME280;35405;52.344;14.530;2022-10-17T16:41:38;101482.03;;;18.34;100.00
49055;BME280;35405;52.344;14.530;2022-10-17T16:44:05;101478.31;;;18.39;100.00
49055;BME280;35405;52.344;14.530;2022-10-17T16:46:30;101480.59;;;18.37;100.00
49055;BME280;35405;52.344;14.530;2022-10-17T16:48:56;101480.28;;;18.30;100.00
49055;BME280;35405;52.344;14.530;2022-10-17T16:51:22;101483.03;;;18.30;100.00
49055;BME280;35405;52.344;14.530;2022-10-17T16:53:48;101484.31;;;18.32;100.00
49055;BME280;35405;52.344;14.530;2022-10-17T16:56:16;101479.78;;;18.27;100.00
49055;BME280;35405;52.344;14.530;2022-10-17T16:58:42;101480.09;;;18.17;100.00
49055;BME280;35405;52.344;14.530;2022-10-17T17:01:11;101488.19;;;18.22;100.00
49055;BME280;35405;52.344;14.530;2022-10-17T17:03:37;101476.06;;;18.23;100.00
49055;BME280;35405;52.344;14.530;2022-10-17T17:06:04;101476.38;;;18.22;100.00
49055;BME280;35405;52.344;14.530;2022-10-17T17:08:30;101481.72;;;18.27;100.00
49055;BME280;35405;52.344;14.530;2022-10-17T17:10:55;101482.69;;;18.31;100.00
49055;BME280;35405;52.344;14.530;2022-10-17T17:13:21;101483.50;;;18.23;100.00
49055;BME280;35405;52.344;14.530;2022-10-17T17:15:46;101483.97;;;18.16;100.00
49055;BME280;35405;52.344;14.530;2022-10-17T17:18:14;101482.22;;;18.12;100.00
49055;BME280;35405;52.344;14.530;2022-10-17T17:20:39;101487.72;;;18.03;100.00
49055;BME280;35405;52.344;14.530;2022-10-17T17:23:05;101496.72;;;17.77;100.00
49055;BME280;35405;52.344;14.530;2022-10-17T17:25:32;101491.63;;;17.62;100.00
49055;BME280;35405;52.344;14.530;2022-10-17T17:27:58;101496.00;;;17.54;100.00
49055;BME280;35405;52.344;14.530;2022-10-17T17:30:25;101500.31;;;17.47;100.00
49055;BME280;35405;52.344;14.530;2022-10-17T17:32:51;101494.31;;;17.45;100.00
49055;BME280;35405;52.344;14.530;2022-10-17T17:35:16;101497.22;;;17.40;100.00
49055;BME280;35405;52.344;14.530;2022-10-17T17:37:41;101494.28;;;17.27;100.00
49055;BME280;35405;52.344;14.530;2022-10-17T17:40:07;101500.72;;;17.23;100.00
49055;BME280;35405;52.344;14.530;2022-10-17T17:42:32;101502.94;;;17.21;100.00
49055;BME280;35405;52.344;14.530;2022-10-17T17:45:00;101490.97;;;17.17;100.00
49055;BME280;35405;52.344;14.530;2022-10-17T17:47:27;101492.91;;;17.16;100.00
49055;BME280;35405;52.344;14.530;2022-10-17T17:49:52;101488.09;;;17.22;100.00
49055;BME280;35405;52.344;14.530;2022-10-17T17:52:17;101496.81;;;17.15;100.00
49055;BME280;35405;52.344;14.530;2022-10-17T17:54:43;101493.84;;;17.11;100.00
49055;BME280;35405;52.344;14.530;2022-10-17T17:57:09;101494.06;;;17.15;100.00
49055;BME280;35405;52.344;14.530;2022-10-17T17:59:34;101500.03;;;17.17;100.00
49055;BME280;35405;52.344;14.530;2022-10-17T18:01:59;101481.59;;;17.18;100.00
49055;BME280;35405;52.344;14.530;2022-10-17T18:04:26;101495.66;;;17.16;100.00
49055;BME280;35405;52.344;14.530;2022-10-17T18:06:52;101494.41;;;17.22;100.00
49055;BME280;35405;52.344;14.530;2022-10-17T18:09:17;101494.56;;;17.26;100.00
49055;BME280;35405;52.344;14.530;2022-10-17T18:11:44;101495.13;;;17.36;100.00
49055;BME280;35405;52.344;14.530;2022-10-17T18:14:10;101497.56;;;17.47;100.00
49055;BME280;35405;52.344;14.530;2022-10-17T18:16:36;101501.78;;;17.53;100.00
49055;BME280;35405;52.344;14.530;2022-10-17T18:19:03;101502.31;;;17.55;100.00
49055;BME280;35405;52.344;14.530;2022-10-17T18:21:33;101504.06;;;17.59;100.00
49055;BME280;35405;52.344;14.530;2022-10-17T18:23:58;101496.03;;;17.63;100.00
49055;BME280;35405;52.344;14.530;2022-10-17T18:26:24;101497.16;;;17.71;100.00
49055;BME280;35405;52.344;14.530;2022-10-17T18:28:49;101493.44;;;17.67;100.00
49055;BME280;35405;52.344;14.530;2022-10-17T18:31:18;101500.72;;;17.71;100.00
49055;BME280;35405;52.344;14.530;2022-10-17T18:33:49;101489.41;;;17.73;100.00
49055;BME280;35405;52.344;14.530;2022-10-17T18:36:15;101490.50;;;17.72;100.00
49055;BME280;35405;52.344;14.530;2022-10-17T18:38:40;101502.63;;;17.62;100.00
49055;BME280;35405;52.344;14.530;2022-10-17T18:41:07;101500.53;;;17.59;100.00
49055;BME280;35405;52.344;14.530;2022-10-17T18:43:33;101506.78;;;17.51;100.00
49055;BME280;35405;52.344;14.530;2022-10-17T18:46:06;101507.00;;;17.54;100.00
49055;BME280;35405;52.344;14.530;2022-10-17T18:48:47;101518.44;;;17.48;100.00
49055;BME280;35405;52.344;14.530;2022-10-17T18:51:13;101508.53;;;17.38;100.00
49055;BME280;35405;52.344;14.530;2022-10-17T18:53:40;101527.44;;;17.31;100.00
49055;BME280;35405;52.344;14.530;2022-10-17T18:56:05;101525.63;;;17.26;100.00
49055;BME280;35405;52.344;14.530;2022-10-17T18:58:31;101513.94;;;17.21;100.00
49055;BME280;35405;52.344;14.530;2022-10-17T19:01:03;101515.75;;;17.25;100.00
49055;BME280;35405;52.344;14.530;2022-10-17T19:03:29;101516.75;;;17.29;100.00
49055;BME280;35405;52.344;14.530;2022-10-17T19:05:54;101526.41;;;17.18;100.00
49055;BME280;35405;52.344;14.530;2022-10-17T19:08:20;101527.69;;;17.12;100.00
49055;BME280;35405;52.344;14.530;2022-10-17T19:10:45;101531.97;;;17.04;100.00
49055;BME280;35405;52.344;14.530;2022-10-17T19:13:10;101531.13;;;16.95;100.00
49055;BME280;35405;52.344;14.530;2022-10-17T19:15:36;101525.94;;;16.94;100.00
49055;BME280;35405;52.344;14.530;2022-10-17T19:18:02;101529.31;;;16.90;100.00
49055;BME280;35405;52.344;14.530;2022-10-17T19:20:27;101523.97;;;16.85;100.00
49055;BME280;35405;52.344;14.530;2022-10-17T19:22:52;101523.56;;;16.78;100.00
49055;BME280;35405;52.344;14.530;2022-10-17T19:25:18;101519.72;;;16.79;100.00
49055;BME280;35405;52.344;14.530;2022-10-17T19:27:43;101517.16;;;16.83;100.00
49055;BME280;35405;52.344;14.530;2022-10-17T19:30:08;101515.53;;;16.82;100.00
49055;BME280;35405;52.344;14.530;2022-10-17T19:32:34;101525.22;;;16.79;100.00
49055;BME280;35405;52.344;14.530;2022-10-17T19:35:00;101532.53;;;16.70;100.00
49055;BME280;35405;52.344;14.530;2022-10-17T19:37:25;101534.91;;;16.63;100.00
49055;BME280;35405;52.344;14.530;2022-10-17T19:39:51;101528.09;;;16.60;100.00
49055;BME280;35405;52.344;14.530;2022-10-17T19:42:16;101529.41;;;16.63;100.00
49055;BME280;35405;52.344;14.530;2022-10-17T19:44:41;101531.06;;;16.64;100.00
49055;BME280;35405;52.344;14.530;2022-10-17T19:47:07;101528.09;;;16.60;100.00
49055;BME280;35405;52.344;14.530;2022-10-17T19:49:32;101533.09;;;16.58;100.00
49055;BME280;35405;52.344;14.530;2022-10-17T19:52:00;101533.84;;;16.50;100.00
